sensor_id;sensor_type;location;lat;lon;timestamp;temperature;humidity
41481;DHT22;27217;51.220;5.308;2022-10-16T00:00:36;13.20;99.90
41481;DHT22;27217;51.220;5.308;2022-10-16T00:03:05;13.10;99.90
41481;DHT22;27217;51.220;5.308;2022-10-16T00:05:32;13.30;99.90
41481;DHT22;27217;51.220;5.308;2022-10-16T00:07:58;13.30;99.90
41481;DHT22;27217;51.220;5.308;2022-10-16T00:10:23;13.50;99.90
41481;DHT22;27217;51.220;5.308;2022-10-16T00:12:49;13.40;99.90
41481;DHT22;27217;51.220;5.308;2022-10-16T00:15:16;13.40;99.90
41481;DHT22;27217;51.220;5.308;2022-10-16T00:17:42;13.40;99.90
41481;DHT22;27217;51.220;5.308;2022-10-16T00:20:08;13.30;99.90
41481;DHT22;27217;51.220;5.308;2022-10-16T00:22:34;13.40;99.90
41481;DHT22;27217;51.220;5.308;2022-10-16T00:25:00;13.30;99.90
41481;DHT22;27217;51.220;5.308;2022-10-16T00:27:26;13.70;99.90
41481;DHT22;27217;51.220;5.308;2022-10-16T00:29:52;13.70;99.90
41481;DHT22;27217;51.220;5.308;2022-10-16T00:32:19;13.60;99.90
41481;DHT22;27217;51.220;5.308;2022-10-16T00:34:45;13.60;99.90
41481;DHT22;27217;51.220;5.308;2022-10-16T00:37:12;13.80;99.90
41481;DHT22;27217;51.220;5.308;2022-10-16T00:39:37;13.80;99.90
41481;DHT22;27217;51.220;5.308;2022-10-16T00:42:03;13.80;99.90
41481;DHT22;27217;51.220;5.308;2022-10-16T00:44:56;14.00;99.90
41481;DHT22;27217;51.220;5.308;2022-10-16T00:47:27;13.80;99.90
41481;DHT22;27217;51.220;5.308;2022-10-16T00:50:43;13.70;99.90
41481;DHT22;27217;51.220;5.308;2022-10-16T00:52:48;13.70;99.90
41481;DHT22;27217;51.220;5.308;2022-10-16T00:55:15;13.60;99.90
41481;DHT22;27217;51.220;5.308;2022-10-16T00:57:42;13.60;99.90
41481;DHT22;27217;51.220;5.308;2022-10-16T01:00:14;13.50;99.90
41481;DHT22;27217;51.220;5.308;2022-10-16T01:02:41;13.50;99.90
41481;DHT22;27217;51.220;5.308;2022-10-16T01:05:08;13.50;99.90
41481;DHT22;27217;51.220;5.308;2022-10-16T01:07:56;13.20;99.90
41481;DHT22;27217;51.220;5.308;2022-10-16T01:13:17;13.50;99.90
41481;DHT22;27217;51.220;5.308;2022-10-16T01:15:59;13.50;99.90
41481;DHT22;27217;51.220;5.308;2022-10-16T01:20:59;13.60;99.90
41481;DHT22;27217;51.220;5.308;2022-10-16T01:23:49;13.60;99.90
41481;DHT22;27217;51.220;5.308;2022-10-16T01:31:53;13.50;99.90
41481;DHT22;27217;51.220;5.308;2022-10-16T01:34:28;13.60;99.90
41481;DHT22;27217;51.220;5.308;2022-10-16T01:37:12;13.40;99.90
41481;DHT22;27217;51.220;5.308;2022-10-16T01:39:40;13.20;99.90
41481;DHT22;27217;51.220;5.308;2022-10-16T01:42:11;13.00;99.90
41481;DHT22;27217;51.220;5.308;2022-10-16T01:44:41;12.80;99.90
41481;DHT22;27217;51.220;5.308;2022-10-16T01:47:09;12.80;99.90
41481;DHT22;27217;51.220;5.308;2022-10-16T01:49:38;12.80;99.90
41481;DHT22;27217;51.220;5.308;2022-10-16T01:52:07;12.70;99.90
41481;DHT22;27217;51.220;5.308;2022-10-16T01:54:37;12.90;99.90
41481;DHT22;27217;51.220;5.308;2022-10-16T01:57:06;13.20;99.90
41481;DHT22;27217;51.220;5.308;2022-10-16T01:59:40;13.30;99.90
41481;DHT22;27217;51.220;5.308;2022-10-16T02:02:09;13.20;99.90
41481;DHT22;27217;51.220;5.308;2022-10-16T02:05:12;13.00;99.90
41481;DHT22;27217;51.220;5.308;2022-10-16T02:07:41;13.00;99.90
41481;DHT22;27217;51.220;5.308;2022-10-16T02:10:08;12.90;99.90
41481;DHT22;27217;51.220;5.308;2022-10-16T02:12:36;12.70;99.90
41481;DHT22;27217;51.220;5.308;2022-10-16T02:15:05;12.80;99.90
41481;DHT22;27217;51.220;5.308;2022-10-16T02:17:32;12.70;99.90
41481;DHT22;27217;51.220;5.308;2022-10-16T02:19:58;13.00;99.90
41481;DHT22;27217;51.220;5.308;2022-10-16T02:22:29;13.00;99.90
41481;DHT22;27217;51.220;5.308;2022-10-16T02:25:35;12.80;99.90
41481;DHT22;27217;51.220;5.308;2022-10-16T02:30:55;12.80;99.90
41481;DHT22;27217;51.220;5.308;2022-10-16T02:33:26;12.80;99.90
41481;DHT22;27217;51.220;5.308;2022-10-16T02:35:53;13.10;99.90
41481;DHT22;27217;51.220;5.308;2022-10-16T02:38:20;12.90;99.90
41481;DHT22;27217;51.220;5.308;2022-10-16T02:40:47;12.80;99.90
41481;DHT22;27217;51.220;5.308;2022-10-16T02:43:13;12.70;99.90
41481;DHT22;27217;51.220;5.308;2022-10-16T02:45:39;12.80;99.90
41481;DHT22;27217;51.220;5.308;2022-10-16T02:48:05;12.70;99.90
41481;DHT22;27217;51.220;5.308;2022-10-16T02:50:31;12.70;99.90
41481;DHT22;27217;51.220;5.308;2022-10-16T02:52:56;12.80;99.90
41481;DHT22;27217;51.220;5.308;2022-10-16T02:55:25;12.70;99.90
41481;DHT22;27217;51.220;5.308;2022-10-16T02:57:50;12.60;99.90
41481;DHT22;27217;51.220;5.308;2022-10-16T03:00:17;12.70;99.90
41481;DHT22;27217;51.220;5.308;2022-10-16T03:02:43;12.90;99.90
41481;DHT22;27217;51.220;5.308;2022-10-16T03:05:10;12.70;99.90
41481;DHT22;27217;51.220;5.308;2022-10-16T03:07:36;12.70;99.90
41481;DHT22;27217;51.220;5.308;2022-10-16T03:10:01;12.60;99.90
41481;DHT22;27217;51.220;5.308;2022-10-16T03:12:28;12.60;99.90
41481;DHT22;27217;51.220;5.308;2022-10-16T03:14:59;12.70;99.90
41481;DHT22;27217;51.220;5.308;2022-10-16T03:17:25;12.70;99.90
41481;DHT22;27217;51.220;5.308;2022-10-16T03:19:51;12.90;99.90
41481;DHT22;27217;51.220;5.308;2022-10-16T03:22:17;12.90;99.90
41481;DHT22;27217;51.220;5.308;2022-10-16T03:24:43;12.90;99.90
41481;DHT22;27217;51.220;5.308;2022-10-16T03:27:09;12.80;99.90
41481;DHT22;27217;51.220;5.308;2022-10-16T03:29:35;12.80;99.90
41481;DHT22;27217;51.220;5.308;2022-10-16T03:32:02;13.00;99.90
41481;DHT22;27217;51.220;5.308;2022-10-16T03:34:28;12.80;99.90
41481;DHT22;27217;51.220;5.308;2022-10-16T03:36:54;12.60;99.90
41481;DHT22;27217;51.220;5.308;2022-10-16T03:39:20;12.70;99.90
41481;DHT22;27217;51.220;5.308;2022-10-16T03:41:46;12.80;99.90
41481;DHT22;27217;51.220;5.308;2022-10-16T03:44:12;13.10;99.90
41481;DHT22;27217;51.220;5.308;2022-10-16T03:46:37;13.40;99.90
41481;DHT22;27217;51.220;5.308;2022-10-16T03:49:03;13.20;99.90
41481;DHT22;27217;51.220;5.308;2022-10-16T03:51:30;13.00;99.90
41481;DHT22;27217;51.220;5.308;2022-10-16T03:53:55;13.10;99.90
41481;DHT22;27217;51.220;5.308;2022-10-16T03:56:21;13.10;99.90
41481;DHT22;27217;51.220;5.308;2022-10-16T03:58:47;13.00;99.90
41481;DHT22;27217;51.220;5.308;2022-10-16T04:01:13;13.00;99.90
41481;DHT22;27217;51.220;5.308;2022-10-16T04:03:39;13.00;99.90
41481;DHT22;27217;51.220;5.308;2022-10-16T04:06:05;13.00;99.90
41481;DHT22;27217;51.220;5.308;2022-10-16T04:08:30;13.20;99.90
41481;DHT22;27217;51.220;5.308;2022-10-16T04:10:59;13.20;99.90
41481;DHT22;27217;51.220;5.308;2022-10-16T04:13:25;13.10;99.90
41481;DHT22;27217;51.220;5.308;2022-10-16T04:15:51;12.90;99.90
41481;DHT22;27217;51.220;5.308;2022-10-16T04:18:17;13.00;99.90
41481;DHT22;27217;51.220;5.308;2022-10-16T04:20:43;12.70;99.90
41481;DHT22;27217;51.220;5.308;2022-10-16T04:23:09;12.70;99.90
41481;DHT22;27217;51.220;5.308;2022-10-16T04:25:35;12.70;99.90
41481;DHT22;27217;51.220;5.308;2022-10-16T04:28:06;12.70;99.90
41481;DHT22;27217;51.220;5.308;2022-10-16T04:30:32;12.50;99.90
41481;DHT22;27217;51.220;5.308;2022-10-16T04:32:59;12.70;99.90
41481;DHT22;27217;51.220;5.308;2022-10-16T04:35:25;12.90;99.90
41481;DHT22;27217;51.220;5.308;2022-10-16T04:37:50;12.70;99.90
41481;DHT22;27217;51.220;5.308;2022-10-16T04:40:23;12.60;99.90
41481;DHT22;27217;51.220;5.308;2022-10-16T04:42:49;12.60;99.90
41481;DHT22;27217;51.220;5.308;2022-10-16T04:45:16;12.60;99.90
41481;DHT22;27217;51.220;5.308;2022-10-16T04:47:41;12.60;99.90
41481;DHT22;27217;51.220;5.308;2022-10-16T04:50:08;12.70;99.90
41481;DHT22;27217;51.220;5.308;2022-10-16T04:52:34;12.90;99.90
41481;DHT22;27217;51.220;5.308;2022-10-16T04:55:01;12.90;99.90
41481;DHT22;27217;51.220;5.308;2022-10-16T04:57:29;12.70;99.90
41481;DHT22;27217;51.220;5.308;2022-10-16T04:59:55;12.70;99.90
41481;DHT22;27217;51.220;5.308;2022-10-16T05:02:20;12.70;99.90
41481;DHT22;27217;51.220;5.308;2022-10-16T05:04:46;12.90;99.90
41481;DHT22;27217;51.220;5.308;2022-10-16T05:07:12;12.90;99.90
41481;DHT22;27217;51.220;5.308;2022-10-16T05:09:38;12.80;99.90
41481;DHT22;27217;51.220;5.308;2022-10-16T05:12:04;12.90;99.90
41481;DHT22;27217;51.220;5.308;2022-10-16T05:14:30;12.80;99.90
41481;DHT22;27217;51.220;5.308;2022-10-16T05:16:56;12.90;99.90
41481;DHT22;27217;51.220;5.308;2022-10-16T05:19:22;12.90;99.90
41481;DHT22;27217;51.220;5.308;2022-10-16T05:21:48;12.80;99.90
41481;DHT22;27217;51.220;5.308;2022-10-16T05:24:14;12.90;99.90
41481;DHT22;27217;51.220;5.308;2022-10-16T05:26:40;12.80;99.90
41481;DHT22;27217;51.220;5.308;2022-10-16T05:29:06;12.90;99.90
41481;DHT22;27217;51.220;5.308;2022-10-16T05:31:32;13.00;99.90
41481;DHT22;27217;51.220;5.308;2022-10-16T05:33:59;13.10;99.90
41481;DHT22;27217;51.220;5.308;2022-10-16T05:36:25;13.10;99.90
41481;DHT22;27217;51.220;5.308;2022-10-16T05:38:59;13.00;99.90
41481;DHT22;27217;51.220;5.308;2022-10-16T05:41:24;12.70;99.90
41481;DHT22;27217;51.220;5.308;2022-10-16T05:43:52;12.70;99.90
41481;DHT22;27217;51.220;5.308;2022-10-16T05:46:18;12.60;99.90
41481;DHT22;27217;51.220;5.308;2022-10-16T05:48:44;12.90;99.90
41481;DHT22;27217;51.220;5.308;2022-10-16T05:51:12;13.00;99.90
41481;DHT22;27217;51.220;5.308;2022-10-16T05:53:39;12.80;99.90
41481;DHT22;27217;51.220;5.308;2022-10-16T05:56:07;12.70;99.90
41481;DHT22;27217;51.220;5.308;2022-10-16T05:58:36;12.60;99.90
41481;DHT22;27217;51.220;5.308;2022-10-16T06:01:07;12.50;99.90
41481;DHT22;27217;51.220;5.308;2022-10-16T06:03:33;12.50;99.90
41481;DHT22;27217;51.220;5.308;2022-10-16T06:06:06;12.40;99.90
41481;DHT22;27217;51.220;5.308;2022-10-16T06:08:32;12.40;99.90
41481;DHT22;27217;51.220;5.308;2022-10-16T06:11:06;12.50;99.90
41481;DHT22;27217;51.220;5.308;2022-10-16T06:13:32;12.60;99.90
41481;DHT22;27217;51.220;5.308;2022-10-16T06:15:58;12.80;99.90
41481;DHT22;27217;51.220;5.308;2022-10-16T06:18:26;12.70;99.90
41481;DHT22;27217;51.220;5.308;2022-10-16T06:20:51;12.70;99.90
41481;DHT22;27217;51.220;5.308;2022-10-16T06:23:18;12.50;99.90
41481;DHT22;27217;51.220;5.308;2022-10-16T06:25:43;12.50;99.90
41481;DHT22;27217;51.220;5.308;2022-10-16T06:28:09;12.80;99.90
41481;DHT22;27217;51.220;5.308;2022-10-16T06:30:36;12.90;99.90
41481;DHT22;27217;51.220;5.308;2022-10-16T06:33:02;12.90;99.90
41481;DHT22;27217;51.220;5.308;2022-10-16T06:35:28;12.60;99.90
41481;DHT22;27217;51.220;5.308;2022-10-16T06:37:54;12.70;99.90
41481;DHT22;27217;51.220;5.308;2022-10-16T06:40:20;12.70;99.90
41481;DHT22;27217;51.220;5.308;2022-10-16T06:42:46;12.80;99.90
41481;DHT22;27217;51.220;5.308;2022-10-16T06:45:12;12.60;99.90
41481;DHT22;27217;51.220;5.308;2022-10-16T06:47:38;12.70;99.90
41481;DHT22;27217;51.220;5.308;2022-10-16T06:50:04;12.80;99.90
41481;DHT22;27217;51.220;5.308;2022-10-16T06:52:33;12.70;99.90
41481;DHT22;27217;51.220;5.308;2022-10-16T06:54:59;12.80;99.90
41481;DHT22;27217;51.220;5.308;2022-10-16T06:57:25;12.90;99.90
41481;DHT22;27217;51.220;5.308;2022-10-16T06:59:51;12.70;99.90
41481;DHT22;27217;51.220;5.308;2022-10-16T07:02:16;12.70;99.90
41481;DHT22;27217;51.220;5.308;2022-10-16T07:04:42;12.70;99.90
41481;DHT22;27217;51.220;5.308;2022-10-16T07:07:08;12.70;99.90
41481;DHT22;27217;51.220;5.308;2022-10-16T07:09:34;12.80;99.90
41481;DHT22;27217;51.220;5.308;2022-10-16T07:12:00;12.80;99.90
41481;DHT22;27217;51.220;5.308;2022-10-16T07:14:25;13.00;99.90
41481;DHT22;27217;51.220;5.308;2022-10-16T07:16:51;12.90;99.90
41481;DHT22;27217;51.220;5.308;2022-10-16T07:19:17;13.00;99.90
41481;DHT22;27217;51.220;5.308;2022-10-16T07:21:43;13.00;99.90
41481;DHT22;27217;51.220;5.308;2022-10-16T07:24:15;13.10;99.90
41481;DHT22;27217;51.220;5.308;2022-10-16T07:26:44;13.30;99.90
41481;DHT22;27217;51.220;5.308;2022-10-16T07:29:19;13.40;99.90
41481;DHT22;27217;51.220;5.308;2022-10-16T07:31:47;13.60;99.90
41481;DHT22;27217;51.220;5.308;2022-10-16T07:34:14;13.50;99.90
41481;DHT22;27217;51.220;5.308;2022-10-16T07:36:41;13.50;99.90
41481;DHT22;27217;51.220;5.308;2022-10-16T07:39:06;13.80;99.90
41481;DHT22;27217;51.220;5.308;2022-10-16T07:41:32;13.90;99.90
41481;DHT22;27217;51.220;5.308;2022-10-16T07:44:02;13.80;99.90
41481;DHT22;27217;51.220;5.308;2022-10-16T07:46:29;13.80;99.90
41481;DHT22;27217;51.220;5.308;2022-10-16T07:48:55;14.00;99.90
41481;DHT22;27217;51.220;5.308;2022-10-16T07:51:24;14.00;99.90
41481;DHT22;27217;51.220;5.308;2022-10-16T07:53:51;13.90;99.90
41481;DHT22;27217;51.220;5.308;2022-10-16T07:56:18;14.20;99.90
41481;DHT22;27217;51.220;5.308;2022-10-16T07:58:45;14.20;99.90
41481;DHT22;27217;51.220;5.308;2022-10-16T08:01:13;14.30;99.90
41481;DHT22;27217;51.220;5.308;2022-10-16T08:03:41;14.40;99.90
41481;DHT22;27217;51.220;5.308;2022-10-16T08:06:07;14.50;99.90
41481;DHT22;27217;51.220;5.308;2022-10-16T08:08:33;14.50;99.90
41481;DHT22;27217;51.220;5.308;2022-10-16T08:10:59;14.60;99.90
41481;DHT22;27217;51.220;5.308;2022-10-16T08:13:25;14.60;99.90
41481;DHT22;27217;51.220;5.308;2022-10-16T08:15:53;14.60;99.90
41481;DHT22;27217;51.220;5.308;2022-10-16T08:18:19;14.70;99.90
41481;DHT22;27217;51.220;5.308;2022-10-16T08:20:45;14.70;99.90
41481;DHT22;27217;51.220;5.308;2022-10-16T08:23:12;14.70;99.90
41481;DHT22;27217;51.220;5.308;2022-10-16T08:25:38;14.70;99.90
41481;DHT22;27217;51.220;5.308;2022-10-16T08:28:07;15.00;99.90
41481;DHT22;27217;51.220;5.308;2022-10-16T08:30:33;15.10;99.90
41481;DHT22;27217;51.220;5.308;2022-10-16T08:32:58;15.10;99.90
41481;DHT22;27217;51.220;5.308;2022-10-16T08:35:24;15.00;99.90
41481;DHT22;27217;51.220;5.308;2022-10-16T08:37:50;14.90;99.90
41481;DHT22;27217;51.220;5.308;2022-10-16T08:40:24;15.10;99.90
41481;DHT22;27217;51.220;5.308;2022-10-16T08:48:46;15.40;99.90
41481;DHT22;27217;51.220;5.308;2022-10-16T08:51:31;15.60;99.90
41481;DHT22;27217;51.220;5.308;2022-10-16T08:54:34;15.60;99.90
41481;DHT22;27217;51.220;5.308;2022-10-16T08:57:20;15.60;99.90
41481;DHT22;27217;51.220;5.308;2022-10-16T08:59:46;15.90;99.90
41481;DHT22;27217;51.220;5.308;2022-10-16T09:02:37;15.80;99.90
41481;DHT22;27217;51.220;5.308;2022-10-16T09:05:26;15.90;99.90
41481;DHT22;27217;51.220;5.308;2022-10-16T09:13:50;16.00;99.90
41481;DHT22;27217;51.220;5.308;2022-10-16T09:16:27;16.20;99.90
41481;DHT22;27217;51.220;5.308;2022-10-16T09:19:15;16.20;99.90
41481;DHT22;27217;51.220;5.308;2022-10-16T09:21:44;16.60;99.90
41481;DHT22;27217;51.220;5.308;2022-10-16T09:24:19;16.80;99.90
41481;DHT22;27217;51.220;5.308;2022-10-16T09:26:46;16.50;99.90
41481;DHT22;27217;51.220;5.308;2022-10-16T09:29:16;16.60;99.90
41481;DHT22;27217;51.220;5.308;2022-10-16T09:31:43;16.40;99.90
41481;DHT22;27217;51.220;5.308;2022-10-16T09:36:45;16.60;99.90
41481;DHT22;27217;51.220;5.308;2022-10-16T09:39:12;16.80;99.90
41481;DHT22;27217;51.220;5.308;2022-10-16T09:41:41;16.70;99.90
41481;DHT22;27217;51.220;5.308;2022-10-16T09:46:49;16.70;99.90
41481;DHT22;27217;51.220;5.308;2022-10-16T09:49:25;16.90;99.90
41481;DHT22;27217;51.220;5.308;2022-10-16T09:52:03;16.90;99.90
41481;DHT22;27217;51.220;5.308;2022-10-16T09:54:29;16.90;99.90
41481;DHT22;27217;51.220;5.308;2022-10-16T09:57:07;17.10;99.90
41481;DHT22;27217;51.220;5.308;2022-10-16T09:59:48;17.10;99.90
41481;DHT22;27217;51.220;5.308;2022-10-16T10:02:15;17.30;99.90
41481;DHT22;27217;51.220;5.308;2022-10-16T10:04:51;17.10;99.90
41481;DHT22;27217;51.220;5.308;2022-10-16T10:07:30;17.20;99.90
41481;DHT22;27217;51.220;5.308;2022-10-16T10:09:59;17.20;99.90
41481;DHT22;27217;51.220;5.308;2022-10-16T10:12:29;17.50;99.90
41481;DHT22;27217;51.220;5.308;2022-10-16T10:15:03;17.70;99.90
41481;DHT22;27217;51.220;5.308;2022-10-16T10:17:29;17.80;99.90
41481;DHT22;27217;51.220;5.308;2022-10-16T10:20:01;18.10;99.90
41481;DHT22;27217;51.220;5.308;2022-10-16T10:41:44;21.50;99.90
41481;DHT22;27217;51.220;5.308;2022-10-16T10:52:43;23.40;99.90
41481;DHT22;27217;51.220;5.308;2022-10-16T11:03:35;23.20;99.90
41481;DHT22;27217;51.220;5.308;2022-10-16T11:06:06;23.80;99.90
41481;DHT22;27217;51.220;5.308;2022-10-16T11:08:50;22.20;99.90
41481;DHT22;27217;51.220;5.308;2022-10-16T11:14:14;20.50;99.90
41481;DHT22;27217;51.220;5.308;2022-10-16T11:16:56;20.30;99.90
41481;DHT22;27217;51.220;5.308;2022-10-16T11:19:37;21.60;99.90
41481;DHT22;27217;51.220;5.308;2022-10-16T11:22:16;21.00;99.90
41481;DHT22;27217;51.220;5.308;2022-10-16T11:27:47;21.00;99.90
41481;DHT22;27217;51.220;5.308;2022-10-16T11:33:04;22.40;99.90
41481;DHT22;27217;51.220;5.308;2022-10-16T11:41:26;27.10;95.50
41481;DHT22;27217;51.220;5.308;2022-10-16T11:44:18;28.50;89.60
41481;DHT22;27217;51.220;5.308;2022-10-16T11:46:59;29.40;83.80
41481;DHT22;27217;51.220;5.308;2022-10-16T11:49:28;30.50;77.90
41481;DHT22;27217;51.220;5.308;2022-10-16T11:52:13;30.10;76.50
41481;DHT22;27217;51.220;5.308;2022-10-16T11:54:52;29.60;77.50
41481;DHT22;27217;51.220;5.308;2022-10-16T11:57:32;28.10;82.90
41481;DHT22;27217;51.220;5.308;2022-10-16T12:00:04;28.80;80.40
41481;DHT22;27217;51.220;5.308;2022-10-16T12:08:13;27.20;89.70
41481;DHT22;27217;51.220;5.308;2022-10-16T12:10:44;28.00;87.60
41481;DHT22;27217;51.220;5.308;2022-10-16T12:13:32;29.00;82.80
41481;DHT22;27217;51.220;5.308;2022-10-16T12:18:37;29.50;77.20
41481;DHT22;27217;51.220;5.308;2022-10-16T12:21:03;29.60;77.50
41481;DHT22;27217;51.220;5.308;2022-10-16T12:23:37;28.10;81.10
41481;DHT22;27217;51.220;5.308;2022-10-16T12:26:04;26.90;86.00
41481;DHT22;27217;51.220;5.308;2022-10-16T12:28:31;27.60;84.30
41481;DHT22;27217;51.220;5.308;2022-10-16T12:31:04;29.70;79.60
41481;DHT22;27217;51.220;5.308;2022-10-16T12:33:34;30.70;75.70
41481;DHT22;27217;51.220;5.308;2022-10-16T12:36:03;30.30;75.10
41481;DHT22;27217;51.220;5.308;2022-10-16T12:38:46;28.60;78.10
41481;DHT22;27217;51.220;5.308;2022-10-16T12:41:12;27.10;85.20
41481;DHT22;27217;51.220;5.308;2022-10-16T12:43:49;26.10;89.30
41481;DHT22;27217;51.220;5.308;2022-10-16T12:48:42;24.00;95.90
41481;DHT22;27217;51.220;5.308;2022-10-16T12:54:11;23.40;98.60
41481;DHT22;27217;51.220;5.308;2022-10-16T12:57:08;22.50;99.90
41481;DHT22;27217;51.220;5.308;2022-10-16T13:00:03;22.30;99.90
41481;DHT22;27217;51.220;5.308;2022-10-16T13:24:14;22.00;99.90
41481;DHT22;27217;51.220;5.308;2022-10-16T13:29:40;21.10;99.90
41481;DHT22;27217;51.220;5.308;2022-10-16T13:32:09;21.00;99.90
41481;DHT22;27217;51.220;5.308;2022-10-16T13:34:45;21.10;99.90
41481;DHT22;27217;51.220;5.308;2022-10-16T13:37:19;20.70;99.90
41481;DHT22;27217;51.220;5.308;2022-10-16T13:39:46;20.70;99.90
41481;DHT22;27217;51.220;5.308;2022-10-16T13:42:28;20.10;99.90
41481;DHT22;27217;51.220;5.308;2022-10-16T13:44:55;20.10;99.90
41481;DHT22;27217;51.220;5.308;2022-10-16T13:47:27;19.90;99.90
41481;DHT22;27217;51.220;5.308;2022-10-16T13:50:02;20.30;99.90
41481;DHT22;27217;51.220;5.308;2022-10-16T13:52:29;20.40;99.90
41481;DHT22;27217;51.220;5.308;2022-10-16T13:54:55;20.60;99.90
41481;DHT22;27217;51.220;5.308;2022-10-16T13:57:22;20.80;99.90
41481;DHT22;27217;51.220;5.308;2022-10-16T13:59:49;20.80;99.90
41481;DHT22;27217;51.220;5.308;2022-10-16T14:02:22;20.80;99.90
41481;DHT22;27217;51.220;5.308;2022-10-16T14:04:49;20.70;99.90
41481;DHT22;27217;51.220;5.308;2022-10-16T14:07:32;20.70;99.90
41481;DHT22;27217;51.220;5.308;2022-10-16T14:10:07;20.40;99.90
41481;DHT22;27217;51.220;5.308;2022-10-16T14:13:00;20.70;99.90
41481;DHT22;27217;51.220;5.308;2022-10-16T14:15:27;21.30;99.90
41481;DHT22;27217;51.220;5.308;2022-10-16T14:17:53;22.00;99.90
41481;DHT22;27217;51.220;5.308;2022-10-16T14:20:21;22.20;99.90
41481;DHT22;27217;51.220;5.308;2022-10-16T14:23:16;22.00;99.90
41481;DHT22;27217;51.220;5.308;2022-10-16T14:25:44;21.50;99.90
41481;DHT22;27217;51.220;5.308;2022-10-16T14:28:20;21.30;99.90
41481;DHT22;27217;51.220;5.308;2022-10-16T14:30:55;21.00;99.90
41481;DHT22;27217;51.220;5.308;2022-10-16T14:36:14;21.00;99.90
41481;DHT22;27217;51.220;5.308;2022-10-16T14:38:48;21.00;99.90
41481;DHT22;27217;51.220;5.308;2022-10-16T14:41:15;20.90;99.90
41481;DHT22;27217;51.220;5.308;2022-10-16T14:43:42;21.20;99.90
41481;DHT22;27217;51.220;5.308;2022-10-16T14:46:17;21.30;99.90
41481;DHT22;27217;51.220;5.308;2022-10-16T14:48:46;21.20;99.90
41481;DHT22;27217;51.220;5.308;2022-10-16T14:51:19;21.10;99.90
41481;DHT22;27217;51.220;5.308;2022-10-16T14:53:46;20.80;99.90
41481;DHT22;27217;51.220;5.308;2022-10-16T14:56:23;20.80;99.90
41481;DHT22;27217;51.220;5.308;2022-10-16T14:58:52;21.00;99.90
41481;DHT22;27217;51.220;5.308;2022-10-16T15:01:19;21.00;99.90
41481;DHT22;27217;51.220;5.308;2022-10-16T15:03:45;21.00;99.90
41481;DHT22;27217;51.220;5.308;2022-10-16T15:06:13;21.00;99.90
41481;DHT22;27217;51.220;5.308;2022-10-16T15:08:39;21.00;99.90
41481;DHT22;27217;51.220;5.308;2022-10-16T15:11:16;20.90;99.90
41481;DHT22;27217;51.220;5.308;2022-10-16T15:13:43;20.80;99.90
41481;DHT22;27217;51.220;5.308;2022-10-16T15:16:15;20.90;99.90
41481;DHT22;27217;51.220;5.308;2022-10-16T15:18:42;21.00;99.90
41481;DHT22;27217;51.220;5.308;2022-10-16T15:21:17;20.90;99.90
41481;DHT22;27217;51.220;5.308;2022-10-16T15:23:46;20.70;99.90
41481;DHT22;27217;51.220;5.308;2022-10-16T15:26:13;20.70;99.90
41481;DHT22;27217;51.220;5.308;2022-10-16T15:28:39;20.70;99.90
41481;DHT22;27217;51.220;5.308;2022-10-16T15:31:05;20.70;99.90
41481;DHT22;27217;51.220;5.308;2022-10-16T15:33:31;20.60;99.90
41481;DHT22;27217;51.220;5.308;2022-10-16T15:35:59;20.20;99.90
41481;DHT22;27217;51.220;5.308;2022-10-16T15:38:26;20.20;99.90
41481;DHT22;27217;51.220;5.308;2022-10-16T15:40:53;20.20;99.90
41481;DHT22;27217;51.220;5.308;2022-10-16T15:43:19;20.30;99.90
41481;DHT22;27217;51.220;5.308;2022-10-16T15:46:02;20.20;99.90
41481;DHT22;27217;51.220;5.308;2022-10-16T15:48:29;20.20;99.90
41481;DHT22;27217;51.220;5.308;2022-10-16T15:50:55;20.10;99.90
41481;DHT22;27217;51.220;5.308;2022-10-16T15:53:21;20.00;99.90
41481;DHT22;27217;51.220;5.308;2022-10-16T15:55:47;19.90;99.90
41481;DHT22;27217;51.220;5.308;2022-10-16T15:58:13;19.90;99.90
41481;DHT22;27217;51.220;5.308;2022-10-16T16:00:39;19.60;99.90
41481;DHT22;27217;51.220;5.308;2022-10-16T16:03:05;19.40;99.90
41481;DHT22;27217;51.220;5.308;2022-10-16T16:05:31;19.50;99.90
41481;DHT22;27217;51.220;5.308;2022-10-16T16:07:58;19.60;99.90
41481;DHT22;27217;51.220;5.308;2022-10-16T16:10:24;19.70;99.90
41481;DHT22;27217;51.220;5.308;2022-10-16T16:12:50;19.50;99.90
41481;DHT22;27217;51.220;5.308;2022-10-16T16:15:19;19.50;99.90
41481;DHT22;27217;51.220;5.308;2022-10-16T16:17:45;19.50;99.90
41481;DHT22;27217;51.220;5.308;2022-10-16T16:20:11;19.30;99.90
41481;DHT22;27217;51.220;5.308;2022-10-16T16:22:38;19.20;99.90
41481;DHT22;27217;51.220;5.308;2022-10-16T16:25:04;19.20;99.90
41481;DHT22;27217;51.220;5.308;2022-10-16T16:27:30;19.00;99.90
41481;DHT22;27217;51.220;5.308;2022-10-16T16:29:59;18.80;99.90
41481;DHT22;27217;51.220;5.308;2022-10-16T16:32:25;18.70;99.90
41481;DHT22;27217;51.220;5.308;2022-10-16T16:34:51;18.70;99.90
41481;DHT22;27217;51.220;5.308;2022-10-16T16:37:17;18.60;99.90
41481;DHT22;27217;51.220;5.308;2022-10-16T16:39:43;18.50;99.90
41481;DHT22;27217;51.220;5.308;2022-10-16T16:42:10;18.40;99.90
41481;DHT22;27217;51.220;5.308;2022-10-16T16:44:37;18.40;99.90
41481;DHT22;27217;51.220;5.308;2022-10-16T16:47:04;18.30;99.90
41481;DHT22;27217;51.220;5.308;2022-10-16T16:49:30;18.20;99.90
41481;DHT22;27217;51.220;5.308;2022-10-16T16:51:56;18.20;99.90
41481;DHT22;27217;51.220;5.308;2022-10-16T16:54:22;18.40;99.90
41481;DHT22;27217;51.220;5.308;2022-10-16T16:56:48;18.40;99.90
41481;DHT22;27217;51.220;5.308;2022-10-16T16:59:17;18.30;99.90
41481;DHT22;27217;51.220;5.308;2022-10-16T17:01:45;18.10;99.90
41481;DHT22;27217;51.220;5.308;2022-10-16T17:04:12;18.00;99.90
41481;DHT22;27217;51.220;5.308;2022-10-16T17:06:38;17.90;99.90
41481;DHT22;27217;51.220;5.308;2022-10-16T17:09:06;17.70;99.90
41481;DHT22;27217;51.220;5.308;2022-10-16T17:11:33;17.70;99.90
41481;DHT22;27217;51.220;5.308;2022-10-16T17:14:00;17.70;99.90
41481;DHT22;27217;51.220;5.308;2022-10-16T17:16:37;17.90;99.90
41481;DHT22;27217;51.220;5.308;2022-10-16T17:19:08;18.00;99.90
41481;DHT22;27217;51.220;5.308;2022-10-16T17:21:36;17.90;99.90
41481;DHT22;27217;51.220;5.308;2022-10-16T17:24:02;17.80;99.90
41481;DHT22;27217;51.220;5.308;2022-10-16T17:26:29;17.80;99.90
41481;DHT22;27217;51.220;5.308;2022-10-16T17:28:57;17.70;99.90
41481;DHT22;27217;51.220;5.308;2022-10-16T17:31:26;17.50;99.90
41481;DHT22;27217;51.220;5.308;2022-10-16T17:33:53;17.40;99.90
41481;DHT22;27217;51.220;5.308;2022-10-16T17:36:21;17.40;99.90
41481;DHT22;27217;51.220;5.308;2022-10-16T17:38:47;17.40;99.90
41481;DHT22;27217;51.220;5.308;2022-10-16T17:41:16;17.50;99.90
41481;DHT22;27217;51.220;5.308;2022-10-16T17:43:43;17.50;99.90
41481;DHT22;27217;51.220;5.308;2022-10-16T17:46:10;17.50;99.90